createdAt,value
2022-09-23T00:02:31.410Z,9.55
2022-09-23T00:05:34.298Z,10.32
2022-09-23T00:08:36.740Z,11.32
2022-09-23T00:11:39.082Z,9.45
2022-09-23T00:14:41.133Z,9.95
2022-09-23T00:17:44.429Z,11.40
2022-09-23T00:20:46.768Z,10.60
2022-09-23T00:23:49.635Z,8.80
2022-09-23T00:26:51.692Z,12.07
2022-09-23T00:29:54.026Z,11.45
2022-09-23T00:32:56.776Z,10.32
2022-09-23T00:36:00.487Z,9.13
2022-09-23T00:39:04.468Z,11.68
2022-09-23T00:42:14.031Z,9.25
2022-09-23T00:45:16.867Z,12.98
2022-09-23T00:48:20.846Z,11.30
2022-09-23T00:51:28.024Z,9.57
2022-09-23T00:54:31.132Z,8.23
2022-09-23T00:57:35.004Z,7.87
2022-09-23T01:00:37.598Z,8.77
2022-09-23T01:03:42.949Z,11.15
2022-09-23T01:06:45.285Z,7.78
2022-09-23T01:09:48.616Z,9.35
2022-09-23T01:13:17.256Z,8.70
2022-09-23T01:16:46.993Z,8.73
2022-09-23T01:20:13.781Z,8.25
2022-09-23T01:23:46.590Z,7.47
2022-09-23T01:26:56.585Z,6.20
2022-09-23T01:30:16.761Z,7.32
2022-09-23T01:33:43.135Z,7.40
2022-09-23T01:36:55.311Z,7.57
2022-09-23T01:40:06.763Z,8.57
2022-09-23T01:43:31.169Z,7.47
2022-09-23T01:46:42.431Z,9.93
2022-09-23T01:49:53.187Z,7.12
2022-09-23T01:53:01.492Z,8.07
2022-09-23T01:56:10.693Z,8.35
2022-09-23T01:59:26.549Z,8.38
2022-09-23T02:02:31.718Z,9.45
2022-09-23T02:05:39.477Z,7.93
2022-09-23T02:08:56.517Z,8.45
2022-09-23T02:12:05.690Z,7.93
2022-09-23T02:15:16.230Z,8.13
2022-09-23T02:18:26.539Z,8.05
2022-09-23T02:21:34.330Z,8.00
2022-09-23T02:24:39.429Z,8.05
2022-09-23T02:27:49.685Z,8.77
2022-09-23T02:31:03.652Z,7.78
2022-09-23T02:34:25.919Z,8.43
2022-09-23T02:37:43.433Z,10.15
2022-09-23T02:41:06.611Z,8.90
2022-09-23T02:44:12.695Z,7.55
2022-09-23T02:47:18.161Z,7.18
2022-09-23T02:50:22.245Z,8.07
2022-09-23T02:53:24.798Z,7.03
2022-09-23T02:56:28.147Z,8.13
2022-09-23T02:59:31.481Z,9.52
2022-09-23T03:03:00.069Z,7.07
2022-09-23T03:06:15.593Z,8.70
2022-09-23T03:09:33.872Z,11.10
2022-09-23T03:12:47.995Z,11.30
2022-09-23T03:16:35.571Z,8.27
2022-09-23T03:19:48.309Z,7.78
2022-09-23T03:22:56.890Z,8.43
2022-09-23T03:26:06.140Z,8.95
2022-09-23T03:29:11.402Z,9.63
2022-09-23T03:32:17.206Z,7.32
2022-09-23T03:35:23.455Z,6.85
2022-09-23T03:38:34.188Z,7.75
2022-09-23T03:41:41.834Z,10.40
2022-09-23T03:44:48.096Z,7.93
2022-09-23T03:47:50.413Z,8.70
2022-09-23T03:50:52.500Z,6.85
2022-09-23T03:53:54.862Z,7.00
2022-09-23T03:56:58.261Z,6.43
2022-09-23T04:00:00.628Z,9.30
2022-09-23T04:03:02.861Z,7.45
2022-09-23T04:06:05.340Z,7.37
2022-09-23T04:09:08.188Z,7.72
2022-09-23T04:12:14.723Z,7.05
2022-09-23T04:15:17.063Z,8.40
2022-09-23T04:18:19.435Z,8.77
2022-09-23T04:21:22.056Z,7.75
2022-09-23T04:24:24.491Z,8.60
2022-09-23T04:27:26.526Z,9.80
2022-09-23T04:30:28.864Z,9.45
2022-09-23T04:33:31.363Z,9.18
2022-09-23T04:36:33.731Z,9.60
2022-09-23T04:39:35.836Z,12.82
2022-09-23T04:42:38.158Z,11.20
2022-09-23T04:45:40.228Z,9.82
2022-09-23T04:48:42.965Z,10.23
2022-09-23T04:51:45.849Z,18.15
2022-09-23T04:54:48.453Z,11.38
2022-09-23T04:57:50.579Z,12.85
2022-09-23T05:00:52.986Z,11.00
2022-09-23T05:04:05.380Z,14.68
2022-09-23T05:07:07.787Z,10.48
2022-09-23T05:10:10.236Z,11.82
2022-09-23T05:13:12.943Z,12.90
2022-09-23T05:16:15.639Z,15.50
2022-09-23T05:19:18.017Z,20.77
2022-09-23T05:22:20.095Z,13.60
2022-09-23T05:25:25.202Z,12.18
2022-09-23T05:28:32.851Z,22.80
2022-09-23T05:31:36.590Z,15.02
2022-09-23T05:34:38.890Z,14.70
2022-09-23T05:37:41.385Z,12.48
2022-09-23T05:40:43.751Z,11.00
2022-09-23T05:43:47.348Z,13.13
2022-09-23T05:46:49.646Z,12.37
2022-09-23T05:50:00.529Z,13.73
2022-09-23T05:53:02.923Z,10.40
2022-09-23T05:56:06.477Z,15.88
2022-09-23T05:59:08.691Z,14.20
2022-09-23T06:02:11.158Z,18.02
2022-09-23T06:05:13.837Z,13.13
2022-09-23T06:08:15.986Z,12.68
2022-09-23T06:11:18.686Z,16.35
2022-09-23T06:14:20.766Z,12.15
2022-09-23T06:17:23.084Z,16.67
2022-09-23T06:20:25.608Z,12.50
2022-09-23T06:23:28.507Z,11.75
2022-09-23T06:26:33.532Z,11.63
2022-09-23T06:29:36.921Z,12.73
2022-09-23T06:32:38.997Z,12.48
2022-09-23T06:35:43.801Z,13.70
2022-09-23T06:38:49.350Z,17.12
2022-09-23T06:41:51.660Z,12.13
2022-09-23T06:44:53.726Z,11.07
2022-09-23T06:47:58.852Z,14.32
2022-09-23T06:51:02.529Z,11.43
2022-09-23T06:54:04.898Z,14.07
2022-09-23T06:57:06.950Z,11.45
2022-09-23T07:00:09.979Z,11.48
2022-09-23T07:03:12.065Z,14.30
2022-09-23T07:06:14.739Z,12.43
2022-09-23T07:09:16.846Z,12.82
2022-09-23T07:12:19.246Z,14.35
2022-09-23T07:15:21.389Z,9.93
2022-09-23T07:18:25.453Z,10.27
2022-09-23T07:21:27.864Z,21.20
2022-09-23T07:24:30.244Z,17.60
2022-09-23T07:27:33.233Z,12.88
2022-09-23T07:30:50.876Z,14.82
2022-09-23T07:33:58.310Z,11.05
2022-09-23T07:37:00.668Z,7.95
2022-09-23T07:40:03.032Z,13.05
2022-09-23T07:43:08.347Z,7.62
2022-09-23T07:46:14.416Z,7.72
2022-09-23T07:49:17.327Z,11.90
2022-09-23T07:52:20.168Z,11.65
2022-09-23T07:55:22.542Z,8.65
2022-09-23T07:58:25.929Z,10.65
2022-09-23T08:01:40.555Z,10.35
2022-09-23T08:04:42.984Z,9.23
2022-09-23T08:07:45.090Z,6.25
2022-09-23T08:10:47.580Z,7.12
2022-09-23T08:13:49.632Z,7.45
2022-09-23T08:16:52.407Z,6.70
2022-09-23T08:19:54.532Z,4.57
2022-09-23T08:22:56.834Z,7.72
2022-09-23T08:26:04.907Z,8.38
2022-09-23T08:29:10.151Z,5.47
2022-09-23T08:32:12.620Z,9.98
2022-09-23T08:35:15.447Z,5.70
2022-09-23T08:38:17.757Z,8.15
2022-09-23T08:41:29.386Z,9.63
2022-09-23T08:44:50.915Z,6.53
2022-09-23T08:48:08.522Z,6.12
2022-09-23T08:51:18.339Z,7.93
2022-09-23T08:54:20.994Z,9.20
2022-09-23T08:57:39.888Z,5.90
2022-09-23T09:00:46.143Z,8.38
2022-09-23T09:03:56.771Z,15.45
2022-09-23T09:07:34.705Z,8.82
2022-09-23T09:10:43.915Z,6.97
2022-09-23T09:13:59.704Z,8.00
2022-09-23T09:17:07.908Z,10.38
2022-09-23T09:20:19.264Z,10.00
2022-09-23T09:23:22.811Z,10.00
2022-09-23T09:26:33.583Z,7.62
2022-09-23T09:29:41.261Z,5.80
2022-09-23T09:33:01.605Z,7.90
2022-09-23T09:36:25.241Z,7.63
2022-09-23T09:39:41.070Z,8.30
2022-09-23T09:42:48.438Z,7.62
2022-09-23T09:46:15.107Z,7.72
2022-09-23T09:49:38.117Z,9.20
2022-09-23T09:52:43.250Z,5.93
2022-09-23T09:55:46.112Z,5.72
2022-09-23T09:58:50.102Z,8.68
2022-09-23T10:02:14.081Z,5.47
2022-09-23T10:05:45.432Z,6.20
2022-09-23T10:09:02.259Z,5.30
2022-09-23T10:12:15.619Z,6.80
2022-09-23T10:15:34.728Z,6.97
2022-09-23T10:18:48.142Z,7.28
2022-09-23T10:21:56.573Z,7.07
2022-09-23T10:25:20.911Z,5.97
2022-09-23T10:28:46.335Z,5.43
2022-09-23T10:31:52.737Z,5.97
2022-09-23T10:35:08.888Z,5.65
2022-09-23T10:38:11.402Z,5.10
2022-09-23T10:41:38.682Z,6.05
2022-09-23T10:45:12.097Z,6.22
2022-09-23T10:48:34.032Z,6.62
2022-09-23T10:51:43.587Z,6.70
2022-09-23T10:55:17.209Z,7.75
2022-09-23T10:58:51.683Z,7.22
2022-09-23T11:02:00.623Z,5.72
2022-09-23T11:05:19.437Z,4.25
2022-09-23T11:08:33.749Z,5.55
2022-09-23T11:11:51.096Z,4.97
2022-09-23T11:15:19.983Z,5.28
2022-09-23T11:18:29.720Z,6.05
2022-09-23T11:21:46.934Z,5.72
2022-09-23T11:25:18.686Z,6.87
2022-09-23T11:28:58.353Z,8.95
2022-09-23T11:32:27.567Z,5.53
2022-09-23T11:35:49.862Z,5.87
2022-09-23T11:38:54.988Z,5.20
2022-09-23T11:42:01.052Z,5.25
2022-09-23T11:45:35.606Z,7.60
2022-09-23T11:49:06.312Z,6.03
2022-09-23T11:55:31.483Z,4.68
2022-09-23T11:58:59.805Z,7.60
2022-09-23T12:02:18.993Z,5.55
2022-09-23T12:08:36.509Z,7.72
2022-09-23T12:11:54.818Z,5.05
2022-09-23T12:15:12.327Z,6.18
2022-09-23T12:18:49.797Z,5.57
2022-09-23T12:22:10.166Z,6.57
2022-09-23T12:28:47.990Z,6.85
2022-09-23T12:31:53.689Z,7.00
2022-09-23T12:35:00.978Z,5.40
2022-09-23T12:38:22.557Z,5.43
2022-09-23T12:41:42.507Z,4.80
2022-09-23T12:44:48.619Z,6.03
2022-09-23T12:47:50.668Z,5.07
2022-09-23T12:51:06.612Z,18.10
2022-09-23T12:54:22.419Z,3.28
2022-09-23T12:57:34.021Z,5.93
2022-09-23T13:00:36.203Z,4.35
2022-09-23T13:04:04.159Z,3.65
2022-09-23T13:07:09.141Z,3.42
2022-09-23T13:10:34.023Z,4.10
2022-09-23T13:13:39.829Z,3.53
2022-09-23T13:16:46.126Z,8.32
2022-09-23T13:19:59.411Z,5.40
2022-09-23T13:23:17.552Z,3.87
2022-09-23T13:26:19.669Z,3.62
2022-09-23T13:29:33.201Z,3.40
2022-09-23T13:32:44.702Z,12.30
2022-09-23T13:35:53.072Z,3.63
2022-09-23T13:39:14.964Z,4.65
2022-09-23T13:42:30.206Z,2.80
2022-09-23T13:45:37.990Z,3.53
2022-09-23T13:48:44.175Z,5.53
2022-09-23T13:51:46.371Z,7.62
2022-09-23T13:54:50.081Z,5.82
2022-09-23T13:58:23.793Z,4.00
2022-09-23T14:01:34.744Z,3.20
2022-09-23T14:04:37.615Z,3.97
2022-09-23T14:07:40.050Z,5.82
2022-09-23T14:10:45.984Z,6.93
2022-09-23T14:13:54.183Z,7.10
2022-09-23T14:16:57.409Z,3.87
2022-09-23T14:19:59.489Z,6.35
2022-09-23T14:23:14.642Z,3.20
2022-09-23T14:26:18.030Z,3.05
2022-09-23T14:29:26.895Z,4.00
2022-09-23T14:32:30.104Z,5.10
2022-09-23T14:35:42.726Z,7.85
2022-09-23T14:38:50.552Z,3.25
2022-09-23T14:41:53.187Z,3.42
2022-09-23T14:44:55.974Z,3.00
2022-09-23T14:48:01.157Z,3.35
2022-09-23T14:51:10.935Z,3.87
2022-09-23T14:54:50.578Z,3.22
2022-09-23T14:58:02.216Z,4.55
2022-09-23T15:01:24.690Z,2.90
2022-09-23T15:04:27.742Z,4.32
2022-09-23T15:07:30.088Z,4.57
2022-09-23T15:10:38.082Z,3.12
2022-09-23T15:13:46.986Z,9.45
2022-09-23T15:16:49.181Z,5.35
2022-09-23T15:19:56.668Z,2.55
2022-09-23T15:22:58.771Z,2.20
2022-09-23T15:26:06.988Z,6.87
2022-09-23T15:29:10.188Z,4.57
2022-09-23T15:32:12.518Z,3.40
2022-09-23T15:35:18.578Z,5.28
2022-09-23T15:38:21.945Z,4.35
2022-09-23T15:41:24.371Z,6.53
2022-09-23T15:44:29.594Z,3.22
2022-09-23T15:47:31.759Z,4.47
2022-09-23T15:50:35.747Z,3.78
2022-09-23T15:53:38.235Z,3.80
2022-09-23T15:56:40.621Z,4.05
2022-09-23T15:59:43.113Z,4.43
2022-09-23T16:02:48.624Z,4.72
2022-09-23T16:05:51.814Z,4.50
2022-09-23T16:08:54.591Z,5.12
2022-09-23T16:11:57.095Z,7.20
2022-09-23T16:14:59.183Z,5.20
2022-09-23T16:18:01.681Z,6.57
2022-09-23T16:21:04.596Z,5.60
2022-09-23T16:24:15.706Z,9.32
2022-09-23T16:30:23.035Z,4.82
2022-09-23T16:33:25.171Z,10.20
2022-09-23T16:36:33.080Z,4.07
2022-09-23T16:39:35.177Z,7.43
2022-09-23T16:42:38.270Z,7.28
2022-09-23T16:45:40.551Z,16.00
2022-09-23T16:48:46.993Z,12.30
2022-09-23T16:51:51.849Z,11.20
2022-09-23T16:54:54.211Z,6.82
2022-09-23T16:57:56.330Z,6.25
2022-09-23T17:01:17.746Z,6.85
2022-09-23T17:04:20.059Z,7.30
2022-09-23T17:07:22.584Z,6.57
2022-09-23T17:10:24.645Z,9.60
2022-09-23T17:13:28.086Z,4.68
2022-09-23T17:16:32.143Z,8.80
2022-09-23T17:19:34.703Z,11.25
2022-09-23T17:22:36.795Z,8.07
2022-09-23T17:25:39.122Z,6.95
2022-09-23T17:28:41.198Z,6.72
2022-09-23T17:31:43.672Z,7.20
2022-09-23T17:34:45.880Z,8.52
2022-09-23T17:37:48.223Z,6.78
2022-09-23T17:40:55.392Z,6.15
2022-09-23T17:43:58.571Z,8.25
2022-09-23T17:47:00.834Z,10.93
2022-09-23T17:50:03.355Z,6.78
2022-09-23T17:53:05.589Z,12.68
2022-09-23T17:56:12.779Z,7.55
2022-09-23T17:59:14.871Z,7.87
2022-09-23T18:02:17.282Z,12.10
2022-09-23T18:05:19.752Z,10.73
2022-09-23T18:08:21.800Z,6.40
2022-09-23T18:11:26.378Z,5.70
2022-09-23T18:14:28.867Z,5.70
2022-09-23T18:17:31.245Z,6.20
2022-09-23T18:20:33.316Z,9.07
2022-09-23T18:23:37.234Z,7.87
2022-09-23T18:26:39.902Z,6.60
2022-09-23T18:29:42.255Z,6.57
2022-09-23T18:32:44.938Z,5.78
2022-09-23T18:35:47.287Z,8.07
2022-09-23T18:38:50.473Z,9.07
2022-09-23T18:41:52.808Z,9.13
2022-09-23T18:44:56.418Z,9.88
2022-09-23T18:48:17.387Z,10.15
2022-09-23T18:51:21.501Z,14.85
2022-09-23T18:54:25.857Z,14.75
2022-09-23T18:57:27.946Z,17.30
2022-09-23T19:00:30.347Z,17.50
2022-09-23T19:03:33.822Z,17.48
2022-09-23T19:06:37.341Z,20.50
2022-09-23T19:09:39.439Z,16.92
2022-09-23T19:12:41.801Z,16.50
2022-09-23T19:15:43.889Z,17.67
2022-09-23T19:18:46.765Z,15.10
2022-09-23T19:21:48.914Z,13.70
2022-09-23T19:24:51.318Z,15.77
2022-09-23T19:27:53.784Z,18.98
2022-09-23T19:30:56.396Z,21.27
2022-09-23T19:34:09.943Z,18.33
2022-09-23T19:37:12.471Z,22.60
2022-09-23T19:40:15.403Z,19.05
2022-09-23T19:43:18.263Z,21.23
2022-09-23T19:46:20.847Z,27.23
2022-09-23T19:49:24.443Z,26.02
2022-09-23T19:52:26.706Z,25.92
2022-09-23T19:55:29.370Z,23.87
2022-09-23T19:58:33.018Z,19.95
2022-09-23T20:01:35.976Z,19.75
2022-09-23T20:04:38.551Z,23.92
2022-09-23T20:07:41.880Z,19.65
2022-09-23T20:10:46.740Z,23.73
2022-09-23T20:13:53.639Z,26.15
2022-09-23T20:16:56.022Z,26.02
2022-09-23T20:19:58.675Z,19.30
2022-09-23T20:23:01.042Z,22.25
2022-09-23T20:26:23.647Z,21.73
2022-09-23T20:29:26.388Z,19.48
2022-09-23T20:32:28.971Z,24.35
2022-09-23T20:35:33.100Z,22.15
2022-09-23T20:38:36.432Z,23.60
2022-09-23T20:41:39.562Z,29.70
2022-09-23T20:44:44.049Z,31.52
2022-09-23T20:47:46.376Z,27.75
2022-09-23T20:50:51.080Z,25.10
2022-09-23T20:53:53.390Z,23.02
2022-09-23T20:56:55.464Z,23.92
2022-09-23T20:59:58.149Z,25.15
2022-09-23T21:03:00.519Z,21.67
2022-09-23T21:06:06.193Z,22.25
2022-09-23T21:09:08.708Z,20.20
2022-09-23T21:12:11.523Z,19.02
2022-09-23T21:15:13.713Z,18.08
2022-09-23T21:18:20.429Z,17.00
2022-09-23T21:21:24.665Z,17.67
2022-09-23T21:27:53.950Z,16.25
2022-09-23T21:31:05.961Z,14.63
2022-09-23T21:34:14.504Z,18.00
2022-09-23T21:37:17.565Z,16.17
2022-09-23T21:40:38.480Z,16.27
2022-09-23T21:43:41.413Z,17.08
2022-09-23T21:46:43.573Z,14.55
2022-09-23T21:49:49.906Z,15.70
2022-09-23T21:52:53.440Z,14.15
2022-09-23T21:56:04.734Z,13.95
2022-09-23T21:59:08.028Z,14.30
2022-09-23T22:02:10.348Z,13.50
2022-09-23T22:05:12.692Z,16.33
2022-09-23T22:08:14.745Z,15.00
2022-09-23T22:11:41.127Z,17.20
2022-09-23T22:14:43.335Z,14.20
2022-09-23T22:17:48.006Z,15.65
2022-09-23T22:20:50.227Z,15.18
2022-09-23T22:23:54.104Z,14.18
2022-09-23T22:26:56.248Z,12.05
2022-09-23T22:30:17.025Z,16.15
2022-09-23T22:33:19.117Z,15.32
2022-09-23T22:36:21.861Z,10.57
2022-09-23T22:39:25.367Z,11.35
2022-09-23T22:42:27.975Z,13.13
2022-09-23T22:45:30.168Z,12.70
2022-09-23T22:48:32.502Z,10.38
2022-09-23T22:51:34.713Z,9.98
2022-09-23T22:54:37.453Z,13.23
2022-09-23T22:57:39.746Z,11.55
2022-09-23T23:00:42.085Z,12.50
2022-09-23T23:03:45.629Z,16.83
2022-09-23T23:06:48.046Z,11.38
2022-09-23T23:09:51.219Z,11.20
2022-09-23T23:12:53.563Z,11.35
2022-09-23T23:15:55.698Z,10.32
2022-09-23T23:18:58.123Z,8.55
2022-09-23T23:22:00.620Z,10.18
2022-09-23T23:25:02.970Z,10.40
2022-09-23T23:28:05.847Z,10.20
2022-09-23T23:31:10.964Z,9.32
2022-09-23T23:34:16.170Z,11.80
2022-09-23T23:37:20.937Z,12.37
2022-09-23T23:40:23.335Z,10.48
2022-09-23T23:43:25.749Z,10.20
2022-09-23T23:46:29.637Z,9.57
2022-09-23T23:49:32.069Z,10.00
2022-09-23T23:52:34.151Z,10.70
2022-09-23T23:55:39.225Z,11.98
2022-09-23T23:58:42.305Z,9.52
